sensor_id;sensor_type;location;lat;lon;timestamp;pressure;altitude;pressure_sealevel;temperature;humidity
30421;BME280;17218;54.070;10.012;2023-12-20T00:01:44;100713.72;;;4.18;100.00
30421;BME280;17218;54.070;10.012;2023-12-20T00:04:10;100728.34;;;4.23;100.00
30421;BME280;17218;54.070;10.012;2023-12-20T00:06:36;100717.88;;;4.12;100.00
30421;BME280;17218;54.070;10.012;2023-12-20T00:09:03;100705.94;;;4.12;100.00
30421;BME280;17218;54.070;10.012;2023-12-20T00:11:30;100698.88;;;4.00;100.00
30421;BME280;17218;54.070;10.012;2023-12-20T00:13:57;100698.91;;;4.03;100.00
30421;BME280;17218;54.070;10.012;2023-12-20T00:16:24;100698.16;;;4.08;100.00
30421;BME280;17218;54.070;10.012;2023-12-20T00:18:50;100699.97;;;4.13;100.00
30421;BME280;17218;54.070;10.012;2023-12-20T00:21:17;100694.03;;;4.16;100.00
30421;BME280;17218;54.070;10.012;2023-12-20T00:23:43;100675.84;;;4.03;100.00
30421;BME280;17218;54.070;10.012;2023-12-20T00:26:10;100688.78;;;4.10;100.00
30421;BME280;17218;54.070;10.012;2023-12-20T00:28:37;100682.31;;;4.29;100.00
30421;BME280;17218;54.070;10.012;2023-12-20T00:31:04;100679.78;;;4.31;100.00
30421;BME280;17218;54.070;10.012;2023-12-20T00:33:31;100683.84;;;4.21;100.00
30421;BME280;17218;54.070;10.012;2023-12-20T00:35:57;100674.56;;;4.27;100.00
30421;BME280;17218;54.070;10.012;2023-12-20T00:38:24;100678.91;;;4.30;100.00
30421;BME280;17218;54.070;10.012;2023-12-20T00:40:51;100668.69;;;4.33;100.00
30421;BME280;17218;54.070;10.012;2023-12-20T00:43:17;100676.50;;;4.41;100.00
30421;BME280;17218;54.070;10.012;2023-12-20T00:45:44;100684.97;;;4.35;100.00
30421;BME280;17218;54.070;10.012;2023-12-20T00:48:12;100682.38;;;4.34;100.00
30421;BME280;17218;54.070;10.012;2023-12-20T00:50:39;100682.31;;;4.29;100.00
30421;BME280;17218;54.070;10.012;2023-12-20T00:53:05;100672.91;;;4.31;100.00
30421;BME280;17218;54.070;10.012;2023-12-20T00:55:32;100671.19;;;4.28;100.00
30421;BME280;17218;54.070;10.012;2023-12-20T00:57:59;100672.06;;;4.31;100.00
30421;BME280;17218;54.070;10.012;2023-12-20T01:00:25;100670.53;;;4.42;100.00
30421;BME280;17218;54.070;10.012;2023-12-20T01:02:52;100675.75;;;4.45;100.00
30421;BME280;17218;54.070;10.012;2023-12-20T01:05:20;100664.69;;;4.49;100.00
30421;BME280;17218;54.070;10.012;2023-12-20T01:07:48;100662.91;;;4.45;100.00
30421;BME280;17218;54.070;10.012;2023-12-20T01:10:15;100670.28;;;4.26;100.00
30421;BME280;17218;54.070;10.012;2023-12-20T01:12:43;100660.84;;;4.25;100.00
30421;BME280;17218;54.070;10.012;2023-12-20T01:15:10;100658.19;;;4.19;100.00
30421;BME280;17218;54.070;10.012;2023-12-20T01:17:36;100666.19;;;4.36;100.00
30421;BME280;17218;54.070;10.012;2023-12-20T01:20:03;100664.28;;;4.26;100.00
30421;BME280;17218;54.070;10.012;2023-12-20T01:22:31;100661.75;;;4.27;100.00
30421;BME280;17218;54.070;10.012;2023-12-20T01:25:00;100657.41;;;4.23;100.00
30421;BME280;17218;54.070;10.012;2023-12-20T01:27:27;100658.41;;;4.32;100.00
30421;BME280;17218;54.070;10.012;2023-12-20T01:29:55;100661.91;;;4.37;100.00
30421;BME280;17218;54.070;10.012;2023-12-20T01:32:21;100669.72;;;4.43;100.00
30421;BME280;17218;54.070;10.012;2023-12-20T01:34:48;100662.91;;;4.45;100.00
30421;BME280;17218;54.070;10.012;2023-12-20T01:37:14;100657.06;;;4.54;100.00
30421;BME280;17218;54.070;10.012;2023-12-20T01:39:42;100659.53;;;4.48;100.00
30421;BME280;17218;54.070;10.012;2023-12-20T01:42:09;100649.19;;;4.43;100.00
30421;BME280;17218;54.070;10.012;2023-12-20T01:44:35;100655.03;;;4.33;100.00
30421;BME280;17218;54.070;10.012;2023-12-20T01:47:02;100645.72;;;4.41;100.00
30421;BME280;17218;54.070;10.012;2023-12-20T01:49:28;100640.63;;;4.43;100.00
30421;BME280;17218;54.070;10.012;2023-12-20T01:51:56;100632.94;;;4.44;100.00
30421;BME280;17218;54.070;10.012;2023-12-20T01:54:22;100625.31;;;4.47;100.00
30421;BME280;17218;54.070;10.012;2023-12-20T01:56:51;100634.59;;;4.39;100.00
30421;BME280;17218;54.070;10.012;2023-12-20T01:59:18;100630.28;;;4.36;100.00
30421;BME280;17218;54.070;10.012;2023-12-20T02:01:46;100629.38;;;4.34;100.00
30421;BME280;17218;54.070;10.012;2023-12-20T02:04:13;100614.84;;;4.35;100.00
30421;BME280;17218;54.070;10.012;2023-12-20T02:06:40;100617.56;;;4.46;100.00
30421;BME280;17218;54.070;10.012;2023-12-20T02:09:07;100608.19;;;4.46;100.00
30421;BME280;17218;54.070;10.012;2023-12-20T02:11:34;100620.03;;;4.38;100.00
30421;BME280;17218;54.070;10.012;2023-12-20T02:14:03;100615.22;;;4.57;100.00
30421;BME280;17218;54.070;10.012;2023-12-20T02:16:30;100634.09;;;4.60;100.00
30421;BME280;17218;54.070;10.012;2023-12-20T02:18:56;100618.72;;;4.63;100.00
30421;BME280;17218;54.070;10.012;2023-12-20T02:21:31;100617.22;;;4.78;100.00
30421;BME280;17218;54.070;10.012;2023-12-20T02:23:58;100615.66;;;4.88;100.00
30421;BME280;17218;54.070;10.012;2023-12-20T02:26:24;100610.44;;;4.82;100.00
30421;BME280;17218;54.070;10.012;2023-12-20T02:28:51;100602.47;;;4.64;100.00
30421;BME280;17218;54.070;10.012;2023-12-20T02:31:20;100595.75;;;4.71;100.00
30421;BME280;17218;54.070;10.012;2023-12-20T02:33:47;100593.03;;;4.60;100.00
30421;BME280;17218;54.070;10.012;2023-12-20T02:36:13;100597.31;;;4.61;100.00
30421;BME280;17218;54.070;10.012;2023-12-20T02:38:41;100587.97;;;4.65;100.00
30421;BME280;17218;54.070;10.012;2023-12-20T02:41:08;100580.38;;;4.73;100.00
30421;BME280;17218;54.070;10.012;2023-12-20T02:43:34;100582.78;;;4.62;100.00
30421;BME280;17218;54.070;10.012;2023-12-20T02:46:01;100574.19;;;4.60;100.00
30421;BME280;17218;54.070;10.012;2023-12-20T02:48:27;100574.09;;;4.53;100.00
30421;BME280;17218;54.070;10.012;2023-12-20T02:50:54;100567.25;;;4.52;100.00
30421;BME280;17218;54.070;10.012;2023-12-20T02:53:21;100566.31;;;4.47;100.00
30421;BME280;17218;54.070;10.012;2023-12-20T02:55:49;100565.56;;;4.53;100.00
30421;BME280;17218;54.070;10.012;2023-12-20T02:58:15;100560.34;;;4.50;100.00
30421;BME280;17218;54.070;10.012;2023-12-20T03:00:42;100542.41;;;4.51;100.00
30421;BME280;17218;54.070;10.012;2023-12-20T03:03:09;100562.91;;;4.48;100.00
30421;BME280;17218;54.070;10.012;2023-12-20T03:05:36;100558.72;;;4.55;100.00
30421;BME280;17218;54.070;10.012;2023-12-20T03:08:02;100560.47;;;4.56;100.00
30421;BME280;17218;54.070;10.012;2023-12-20T03:10:29;100551.91;;;4.57;100.00
30421;BME280;17218;54.070;10.012;2023-12-20T03:12:57;100537.38;;;4.56;100.00
30421;BME280;17218;54.070;10.012;2023-12-20T03:15:23;100539.06;;;4.54;100.00
30421;BME280;17218;54.070;10.012;2023-12-20T03:17:50;100544.28;;;4.60;100.00
30421;BME280;17218;54.070;10.012;2023-12-20T03:20:16;100540.81;;;4.58;100.00
30421;BME280;17218;54.070;10.012;2023-12-20T03:22:43;100530.47;;;4.52;100.00
30421;BME280;17218;54.070;10.012;2023-12-20T03:25:09;100522.03;;;4.62;100.00
30421;BME280;17218;54.070;10.012;2023-12-20T03:27:37;100514.47;;;4.70;100.00
30421;BME280;17218;54.070;10.012;2023-12-20T03:30:06;100516.25;;;4.76;100.00
30421;BME280;17218;54.070;10.012;2023-12-20T03:32:33;100515.44;;;4.77;100.00
30421;BME280;17218;54.070;10.012;2023-12-20T03:34:59;100522.25;;;4.78;100.00
30421;BME280;17218;54.070;10.012;2023-12-20T03:37:26;100506.06;;;4.81;100.00
30421;BME280;17218;54.070;10.012;2023-12-20T03:39:52;100508.53;;;4.74;100.00
30421;BME280;17218;54.070;10.012;2023-12-20T03:42:19;100495.69;;;4.71;100.00
30421;BME280;17218;54.070;10.012;2023-12-20T03:44:45;100503.41;;;4.76;100.00
30421;BME280;17218;54.070;10.012;2023-12-20T03:47:13;100494.81;;;4.72;100.00
30421;BME280;17218;54.070;10.012;2023-12-20T03:49:40;100486.19;;;4.67;100.00
30421;BME280;17218;54.070;10.012;2023-12-20T03:52:06;100469.91;;;4.63;100.00
30421;BME280;17218;54.070;10.012;2023-12-20T03:54:33;100475.13;;;4.71;100.00
30421;BME280;17218;54.070;10.012;2023-12-20T03:56:59;100470.72;;;4.61;100.00
30421;BME280;17218;54.070;10.012;2023-12-20T03:59:26;100474.25;;;4.69;100.00
30421;BME280;17218;54.070;10.012;2023-12-20T04:01:52;100470.91;;;4.73;100.00
30421;BME280;17218;54.070;10.012;2023-12-20T04:04:20;100460.66;;;4.76;100.00
30421;BME280;17218;54.070;10.012;2023-12-20T04:06:47;100460.66;;;4.76;100.00
30421;BME280;17218;54.070;10.012;2023-12-20T04:09:13;100470.97;;;4.83;100.00
30421;BME280;17218;54.070;10.012;2023-12-20T04:11:40;100465.81;;;4.78;100.00
30421;BME280;17218;54.070;10.012;2023-12-20T04:14:06;100447.81;;;4.76;100.00
30421;BME280;17218;54.070;10.012;2023-12-20T04:16:34;100453.78;;;4.74;100.00
30421;BME280;17218;54.070;10.012;2023-12-20T04:19:00;100464.16;;;4.83;100.00
30421;BME280;17218;54.070;10.012;2023-12-20T04:21:29;100440.34;;;4.97;100.00
30421;BME280;17218;54.070;10.012;2023-12-20T04:23:55;100443.81;;;4.99;100.00
30421;BME280;17218;54.070;10.012;2023-12-20T04:26:22;100454.06;;;4.99;100.00
30421;BME280;17218;54.070;10.012;2023-12-20T04:28:49;100447.28;;;5.04;100.00
30421;BME280;17218;54.070;10.012;2023-12-20T04:31:15;100442.72;;;4.80;100.00
30421;BME280;17218;54.070;10.012;2023-12-20T04:33:42;100438.38;;;4.74;100.00
30421;BME280;17218;54.070;10.012;2023-12-20T04:36:08;100425.63;;;4.79;100.00
30421;BME280;17218;54.070;10.012;2023-12-20T04:38:36;100416.16;;;4.77;100.00
30421;BME280;17218;54.070;10.012;2023-12-20T04:41:03;100423.06;;;4.82;100.00
30421;BME280;17218;54.070;10.012;2023-12-20T04:43:29;100432.41;;;4.73;100.00
30421;BME280;17218;54.070;10.012;2023-12-20T04:45:56;100439.28;;;4.79;100.00
30421;BME280;17218;54.070;10.012;2023-12-20T04:48:22;100441.94;;;4.87;100.00
30421;BME280;17218;54.070;10.012;2023-12-20T04:50:49;100439.47;;;4.93;100.00
30421;BME280;17218;54.070;10.012;2023-12-20T04:53:16;100421.63;;;5.09;100.00
30421;BME280;17218;54.070;10.012;2023-12-20T04:55:44;100439.00;;;5.33;100.00
30421;BME280;17218;54.070;10.012;2023-12-20T04:58:10;100437.28;;;5.32;100.00
30421;BME280;17218;54.070;10.012;2023-12-20T05:00:37;100422.50;;;5.09;100.00
30421;BME280;17218;54.070;10.012;2023-12-20T05:03:04;100431.88;;;5.06;100.00
30421;BME280;17218;54.070;10.012;2023-12-20T05:05:29;100451.66;;;5.16;100.00
30421;BME280;17218;54.070;10.012;2023-12-20T05:07:56;100443.94;;;5.13;100.00
30421;BME280;17218;54.070;10.012;2023-12-20T05:10:22;100433.66;;;5.11;100.00
30421;BME280;17218;54.070;10.012;2023-12-20T05:12:50;100439.69;;;5.13;100.00
30421;BME280;17218;54.070;10.012;2023-12-20T05:15:17;100409.53;;;4.95;100.00
30421;BME280;17218;54.070;10.012;2023-12-20T05:17:43;100415.50;;;4.96;100.00
30421;BME280;17218;54.070;10.012;2023-12-20T05:20:10;100404.53;;;5.08;100.00
30421;BME280;17218;54.070;10.012;2023-12-20T05:22:37;100397.81;;;5.21;100.00
30421;BME280;17218;54.070;10.012;2023-12-20T05:25:04;100397.78;;;5.19;100.00
30421;BME280;17218;54.070;10.012;2023-12-20T05:27:31;100382.19;;;4.99;100.00
30421;BME280;17218;54.070;10.012;2023-12-20T05:29:59;100381.34;;;5.03;100.00
30421;BME280;17218;54.070;10.012;2023-12-20T05:32:25;100397.63;;;5.02;100.00
30421;BME280;17218;54.070;10.012;2023-12-20T05:34:52;100394.03;;;4.87;100.00
30421;BME280;17218;54.070;10.012;2023-12-20T05:37:18;100389.78;;;4.89;100.00
30421;BME280;17218;54.070;10.012;2023-12-20T05:39:45;100384.72;;;4.96;100.00
30421;BME280;17218;54.070;10.012;2023-12-20T05:42:11;100389.72;;;4.85;100.00
30421;BME280;17218;54.070;10.012;2023-12-20T05:44:38;100364.91;;;4.81;100.00
30421;BME280;17218;54.070;10.012;2023-12-20T05:47:06;100389.72;;;4.83;100.00
30421;BME280;17218;54.070;10.012;2023-12-20T05:49:32;100387.25;;;4.93;100.00
30421;BME280;17218;54.070;10.012;2023-12-20T05:51:59;100382.22;;;5.04;100.00
30421;BME280;17218;54.070;10.012;2023-12-20T05:54:25;100382.31;;;5.13;100.00
30421;BME280;17218;54.070;10.012;2023-12-20T05:56:52;100370.28;;;5.09;100.00
30421;BME280;17218;54.070;10.012;2023-12-20T05:59:18;100370.25;;;5.03;100.00
30421;BME280;17218;54.070;10.012;2023-12-20T06:01:45;100365.09;;;5.01;100.00
30421;BME280;17218;54.070;10.012;2023-12-20T06:04:13;100372.03;;;5.10;100.00
30421;BME280;17218;54.070;10.012;2023-12-20T06:06:43;100382.31;;;5.11;100.00
30421;BME280;17218;54.070;10.012;2023-12-20T06:09:09;100363.47;;;5.12;100.00
30421;BME280;17218;54.070;10.012;2023-12-20T06:11:36;100364.34;;;5.16;100.00
30421;BME280;17218;54.070;10.012;2023-12-20T06:14:02;100361.00;;;5.22;100.00
30421;BME280;17218;54.070;10.012;2023-12-20T06:16:29;100345.47;;;5.06;100.00
30421;BME280;17218;54.070;10.012;2023-12-20T06:18:55;100337.72;;;5.03;100.00
30421;BME280;17218;54.070;10.012;2023-12-20T06:21:23;100345.50;;;5.11;100.00
30421;BME280;17218;54.070;10.012;2023-12-20T06:23:50;100344.66;;;5.12;100.00
30421;BME280;17218;54.070;10.012;2023-12-20T06:26:16;100365.13;;;5.03;100.00
30421;BME280;17218;54.070;10.012;2023-12-20T06:28:43;100335.88;;;4.89;100.00
30421;BME280;17218;54.070;10.012;2023-12-20T06:31:09;100337.75;;;5.05;100.00
30421;BME280;17218;54.070;10.012;2023-12-20T06:33:36;100328.28;;;5.00;100.00
30421;BME280;17218;54.070;10.012;2023-12-20T06:36:03;100310.34;;;5.07;100.00
30421;BME280;17218;54.070;10.012;2023-12-20T06:38:31;100314.59;;;5.01;100.00
30421;BME280;17218;54.070;10.012;2023-12-20T06:40:58;100319.78;;;5.05;100.00
30421;BME280;17218;54.070;10.012;2023-12-20T06:43:24;100298.34;;;5.03;100.00
30421;BME280;17218;54.070;10.012;2023-12-20T06:45:51;100319.81;;;5.11;100.00
30421;BME280;17218;54.070;10.012;2023-12-20T06:48:17;100303.41;;;4.95;100.00
30421;BME280;17218;54.070;10.012;2023-12-20T06:50:44;100311.13;;;4.98;100.00
30421;BME280;17218;54.070;10.012;2023-12-20T06:53:10;100288.91;;;5.00;100.00
30421;BME280;17218;54.070;10.012;2023-12-20T06:55:38;100287.16;;;4.96;100.00
30421;BME280;17218;54.070;10.012;2023-12-20T06:58:05;100298.34;;;5.03;100.00
30421;BME280;17218;54.070;10.012;2023-12-20T07:00:32;100293.25;;;5.06;100.00
30421;BME280;17218;54.070;10.012;2023-12-20T07:02:59;100294.81;;;4.89;100.00
30421;BME280;17218;54.070;10.012;2023-12-20T07:05:25;100295.72;;;4.95;100.00
30421;BME280;17218;54.070;10.012;2023-12-20T07:07:52;100291.50;;;5.03;100.00
30421;BME280;17218;54.070;10.012;2023-12-20T07:10:18;100305.34;;;5.19;100.00
30421;BME280;17218;54.070;10.012;2023-12-20T07:12:46;100289.94;;;5.21;100.00
30421;BME280;17218;54.070;10.012;2023-12-20T07:15:14;100290.69;;;5.06;100.00
30421;BME280;17218;54.070;10.012;2023-12-20T07:17:40;100294.84;;;4.91;100.00
30421;BME280;17218;54.070;10.012;2023-12-20T07:20:08;100302.56;;;4.94;100.00
30421;BME280;17218;54.070;10.012;2023-12-20T07:22:36;100288.75;;;4.83;100.00
30421;BME280;17218;54.070;10.012;2023-12-20T07:25:03;100305.09;;;4.91;100.00
30421;BME280;17218;54.070;10.012;2023-12-20T07:27:29;100282.97;;;5.06;100.00
30421;BME280;17218;54.070;10.012;2023-12-20T07:29:57;100294.25;;;5.25;100.00
30421;BME280;17218;54.070;10.012;2023-12-20T07:32:24;100281.34;;;5.19;100.00
30421;BME280;17218;54.070;10.012;2023-12-20T07:34:50;100278.94;;;5.42;100.00
30421;BME280;17218;54.070;10.012;2023-12-20T07:37:17;100272.16;;;5.51;100.00
30421;BME280;17218;54.070;10.012;2023-12-20T07:39:43;100280.75;;;5.57;100.00
30421;BME280;17218;54.070;10.012;2023-12-20T07:42:10;100258.50;;;5.59;100.00
30421;BME280;17218;54.070;10.012;2023-12-20T07:44:37;100264.28;;;5.27;100.00
30421;BME280;17218;54.070;10.012;2023-12-20T07:47:05;100274.47;;;5.13;100.00
30421;BME280;17218;54.070;10.012;2023-12-20T07:49:31;100265.97;;;5.20;100.00
30421;BME280;17218;54.070;10.012;2023-12-20T07:51:58;100264.19;;;5.08;100.00
30421;BME280;17218;54.070;10.012;2023-12-20T07:54:25;100279.75;;;5.30;100.00
30421;BME280;17218;54.070;10.012;2023-12-20T07:56:51;100286.50;;;5.17;100.00
30421;BME280;17218;54.070;10.012;2023-12-20T07:59:18;100276.97;;;5.04;100.00
30421;BME280;17218;54.070;10.012;2023-12-20T08:01:44;100267.31;;;4.77;100.00
30421;BME280;17218;54.070;10.012;2023-12-20T08:04:12;100257.53;;;4.34;100.00
30421;BME280;17218;54.070;10.012;2023-12-20T08:06:39;100240.03;;;3.99;100.00
30421;BME280;17218;54.070;10.012;2023-12-20T08:09:06;100233.16;;;3.96;100.00
30421;BME280;17218;54.070;10.012;2023-12-20T08:11:33;100241.91;;;4.12;100.00
30421;BME280;17218;54.070;10.012;2023-12-20T08:14:00;100223.22;;;4.27;100.00
30421;BME280;17218;54.070;10.012;2023-12-20T08:16:45;100225.97;;;4.41;100.00
30421;BME280;17218;54.070;10.012;2023-12-20T08:19:32;100225.25;;;4.57;100.00
30421;BME280;17218;54.070;10.012;2023-12-20T08:22:00;100225.28;;;4.63;100.00
30421;BME280;17218;54.070;10.012;2023-12-20T08:24:26;100227.84;;;4.63;100.00
30421;BME280;17218;54.070;10.012;2023-12-20T08:26:54;100215.09;;;4.71;100.00
30421;BME280;17218;54.070;10.012;2023-12-20T08:29:21;100225.38;;;4.72;100.00
30421;BME280;17218;54.070;10.012;2023-12-20T08:31:52;100224.66;;;4.89;100.00
30421;BME280;17218;54.070;10.012;2023-12-20T08:34:20;100214.34;;;4.84;100.00
30421;BME280;17218;54.070;10.012;2023-12-20T08:36:50;100207.56;;;4.89;100.00
30421;BME280;17218;54.070;10.012;2023-12-20T08:39:19;100211.03;;;4.98;100.00
30421;BME280;17218;54.070;10.012;2023-12-20T08:41:47;100225.59;;;4.99;100.00
30421;BME280;17218;54.070;10.012;2023-12-20T08:44:15;100263.38;;;5.14;100.00
30421;BME280;17218;54.070;10.012;2023-12-20T08:46:43;100272.84;;;5.28;100.00
30421;BME280;17218;54.070;10.012;2023-12-20T08:49:09;100277.19;;;5.35;100.00
30421;BME280;17218;54.070;10.012;2023-12-20T08:51:37;100263.31;;;5.08;100.00
30421;BME280;17218;54.070;10.012;2023-12-20T08:54:07;100245.28;;;5.03;100.00
30421;BME280;17218;54.070;10.012;2023-12-20T08:56:34;100238.38;;;4.94;100.00
30421;BME280;17218;54.070;10.012;2023-12-20T08:59:01;100220.22;;;4.68;100.00
30421;BME280;17218;54.070;10.012;2023-12-20T09:01:28;100205.53;;;4.54;100.00
30421;BME280;17218;54.070;10.012;2023-12-20T09:03:55;100201.22;;;4.50;100.00
30421;BME280;17218;54.070;10.012;2023-12-20T09:06:21;100183.94;;;4.27;100.00
30421;BME280;17218;54.070;10.012;2023-12-20T09:08:49;100182.97;;;4.18;100.00
30421;BME280;17218;54.070;10.012;2023-12-20T09:11:17;100213.06;;;4.34;100.00
30421;BME280;17218;54.070;10.012;2023-12-20T09:13:45;100223.38;;;4.40;100.00
30421;BME280;17218;54.070;10.012;2023-12-20T09:16:12;100207.09;;;4.36;100.00
30421;BME280;17218;54.070;10.012;2023-12-20T09:18:41;100219.25;;;4.55;100.00
30421;BME280;17218;54.070;10.012;2023-12-20T09:21:07;100237.38;;;4.73;100.00
30421;BME280;17218;54.070;10.012;2023-12-20T09:23:34;100243.34;;;4.74;100.00
30421;BME280;17218;54.070;10.012;2023-12-20T09:26:06;100240.88;;;4.86;100.00
30421;BME280;17218;54.070;10.012;2023-12-20T09:28:36;100260.59;;;4.91;100.00
30421;BME280;17218;54.070;10.012;2023-12-20T09:31:06;100247.75;;;4.89;100.00
30421;BME280;17218;54.070;10.012;2023-12-20T09:33:34;100247.66;;;4.78;100.00
30421;BME280;17218;54.070;10.012;2023-12-20T09:36:04;100247.69;;;4.81;100.00
30421;BME280;17218;54.070;10.012;2023-12-20T09:38:32;100249.44;;;4.88;100.00
30421;BME280;17218;54.070;10.012;2023-12-20T09:40:58;100238.38;;;4.93;100.00
30421;BME280;17218;54.070;10.012;2023-12-20T09:43:27;100247.84;;;5.03;100.00
30421;BME280;17218;54.070;10.012;2023-12-20T09:46:00;100250.34;;;4.92;100.00
30421;BME280;17218;54.070;10.012;2023-12-20T09:48:27;100246.94;;;4.93;100.00
30421;BME280;17218;54.070;10.012;2023-12-20T09:50:56;100256.94;;;4.60;100.00
30421;BME280;17218;54.070;10.012;2023-12-20T09:53:28;100251.81;;;4.62;100.00
30421;BME280;17218;54.070;10.012;2023-12-20T09:56:32;100261.22;;;4.66;100.00
30421;BME280;17218;54.070;10.012;2023-12-20T09:59:00;100245.03;;;4.72;100.00
30421;BME280;17218;54.070;10.012;2023-12-20T10:01:28;100255.44;;;4.86;100.00
30421;BME280;17218;54.070;10.012;2023-12-20T10:03:56;100237.31;;;4.67;100.00
30421;BME280;17218;54.070;10.012;2023-12-20T10:06:23;100252.63;;;4.62;100.00
30421;BME280;17218;54.070;10.012;2023-12-20T10:08:50;100245.03;;;4.70;100.00
30421;BME280;17218;54.070;10.012;2023-12-20T10:11:17;100257.13;;;4.84;100.00
30421;BME280;17218;54.070;10.012;2023-12-20T10:13:48;100246.84;;;4.82;100.00
30421;BME280;17218;54.070;10.012;2023-12-20T10:16:17;100240.06;;;4.92;100.00
30421;BME280;17218;54.070;10.012;2023-12-20T10:18:46;100253.94;;;5.16;100.00
30421;BME280;17218;54.070;10.012;2023-12-20T10:30:51;100212.16;;;5.42;100.00
30421;BME280;17218;54.070;10.012;2023-12-20T10:33:23;100211.31;;;5.43;100.00
30421;BME280;17218;54.070;10.012;2023-12-20T10:35:52;100216.56;;;5.64;100.00
30421;BME280;17218;54.070;10.012;2023-12-20T10:38:18;100211.97;;;5.12;100.00
30421;BME280;17218;54.070;10.012;2023-12-20T10:40:46;100204.31;;;5.16;100.00
30421;BME280;17218;54.070;10.012;2023-12-20T10:43:13;100208.56;;;5.12;100.00
30421;BME280;17218;54.070;10.012;2023-12-20T10:45:41;100217.09;;;5.09;100.00
30421;BME280;17218;54.070;10.012;2023-12-20T10:48:10;100186.94;;;4.79;100.00
30421;BME280;17218;54.070;10.012;2023-12-20T10:50:38;100220.34;;;4.85;100.00
30421;BME280;17218;54.070;10.012;2023-12-20T10:53:07;100203.97;;;4.70;100.00
30421;BME280;17218;54.070;10.012;2023-12-20T10:55:33;100206.44;;;4.61;100.00
30421;BME280;17218;54.070;10.012;2023-12-20T10:58:01;100209.16;;;4.76;100.00
30421;BME280;17218;54.070;10.012;2023-12-20T11:00:29;100199.78;;;4.79;100.00
30421;BME280;17218;54.070;10.012;2023-12-20T11:03:00;100219.50;;;4.89;100.00
30421;BME280;17218;54.070;10.012;2023-12-20T11:05:36;100215.28;;;4.94;100.00
30421;BME280;17218;54.070;10.012;2023-12-20T11:08:09;100217.19;;;5.23;100.00
30421;BME280;17218;54.070;10.012;2023-12-20T11:10:42;100208.69;;;5.34;100.00
30421;BME280;17218;54.070;10.012;2023-12-20T11:13:15;100211.22;;;5.31;100.00
30421;BME280;17218;54.070;10.012;2023-12-20T11:15:44;100212.28;;;5.66;100.00
30421;BME280;17218;54.070;10.012;2023-12-20T11:18:11;100205.53;;;5.93;100.00
30421;BME280;17218;54.070;10.012;2023-12-20T11:20:38;100178.19;;;6.07;100.00
30421;BME280;17218;54.070;10.012;2023-12-20T11:23:05;100179.06;;;6.35;100.00
30421;BME280;17218;54.070;10.012;2023-12-20T11:25:46;100168.78;;;6.33;100.00
30421;BME280;17218;54.070;10.012;2023-12-20T11:28:13;100154.22;;;6.51;100.00
30421;BME280;17218;54.070;10.012;2023-12-20T11:30:45;100171.38;;;6.55;100.00
30421;BME280;17218;54.070;10.012;2023-12-20T11:33:13;100162.72;;;7.11;100.00
30421;BME280;17218;54.070;10.012;2023-12-20T11:35:40;100164.19;;;7.81;100.00
30421;BME280;17218;54.070;10.012;2023-12-20T11:38:07;100147.38;;;8.55;100.00
30421;BME280;17218;54.070;10.012;2023-12-20T11:40:36;100118.03;;;8.67;100.00
30421;BME280;17218;54.070;10.012;2023-12-20T11:43:03;100107.63;;;8.78;100.00
30421;BME280;17218;54.070;10.012;2023-12-20T11:45:30;100126.06;;;9.26;100.00
30421;BME280;17218;54.070;10.012;2023-12-20T11:47:57;100118.34;;;9.19;100.00
30421;BME280;17218;54.070;10.012;2023-12-20T11:50:24;100109.50;;;8.61;100.00
30421;BME280;17218;54.070;10.012;2023-12-20T11:52:52;100121.16;;;9.02;100.00
30421;BME280;17218;54.070;10.012;2023-12-20T11:55:19;100116.13;;;8.87;100.00
30421;BME280;17218;54.070;10.012;2023-12-20T11:57:47;100120.84;;;9.29;100.00
30421;BME280;17218;54.070;10.012;2023-12-20T12:00:14;100114.84;;;8.32;100.00
30421;BME280;17218;54.070;10.012;2023-12-20T12:02:41;100116.00;;;7.91;100.00
30421;BME280;17218;54.070;10.012;2023-12-20T12:05:08;100118.56;;;7.97;100.00
30421;BME280;17218;54.070;10.012;2023-12-20T12:07:35;100116.13;;;8.87;100.00
30421;BME280;17218;54.070;10.012;2023-12-20T12:10:01;100110.56;;;9.24;100.00
30421;BME280;17218;54.070;10.012;2023-12-20T12:12:29;100108.00;;;9.19;100.00
30421;BME280;17218;54.070;10.012;2023-12-20T12:14:57;100096.22;;;8.95;100.00
30421;BME280;17218;54.070;10.012;2023-12-20T12:17:24;100107.78;;;8.59;100.00
30421;BME280;17218;54.070;10.012;2023-12-20T12:19:51;100101.50;;;7.74;100.00
30421;BME280;17218;54.070;10.012;2023-12-20T12:22:27;100104.25;;;7.41;100.00
30421;BME280;17218;54.070;10.012;2023-12-20T12:24:54;100111.25;;;7.06;100.00
30421;BME280;17218;54.070;10.012;2023-12-20T12:27:22;100118.19;;;6.63;100.00
30421;BME280;17218;54.070;10.012;2023-12-20T12:30:01;100110.47;;;6.43;100.00
30421;BME280;17218;54.070;10.012;2023-12-20T12:32:29;100128.47;;;6.35;100.00
30421;BME280;17218;54.070;10.012;2023-12-20T12:34:55;100120.75;;;6.48;100.00
30421;BME280;17218;54.070;10.012;2023-12-20T12:37:22;100113.03;;;6.57;100.00
30421;BME280;17218;54.070;10.012;2023-12-20T12:39:50;100115.59;;;6.68;100.00
30421;BME280;17218;54.070;10.012;2023-12-20T12:42:16;100125.00;;;6.99;100.00
30421;BME280;17218;54.070;10.012;2023-12-20T12:44:43;100121.31;;;7.67;100.00
30421;BME280;17218;54.070;10.012;2023-12-20T12:47:11;100115.91;;;8.08;100.00
30421;BME280;17218;54.070;10.012;2023-12-20T12:49:37;100102.09;;;8.15;100.00
30421;BME280;17218;54.070;10.012;2023-12-20T12:52:05;100111.44;;;8.32;100.00